createdAt,value
2022-08-23T00:02:25.247Z,74.52
2022-08-23T00:04:56.458Z,74.44
2022-08-23T00:07:38.499Z,74.88
2022-08-23T00:10:06.474Z,74.55
2022-08-23T00:12:33.130Z,74.95
2022-08-23T00:14:59.650Z,75.45
2022-08-23T00:17:33.392Z,75.25
2022-08-23T00:20:02.451Z,75.04
2022-08-23T00:22:28.964Z,75.33
2022-08-23T00:24:55.612Z,75.24
2022-08-23T00:27:22.283Z,75.50
2022-08-23T00:29:52.081Z,75.71
2022-08-23T00:32:23.077Z,75.83
2022-08-23T00:34:50.657Z,75.73
2022-08-23T00:37:18.262Z,76.44
2022-08-23T00:39:47.645Z,76.62
2022-08-23T00:42:47.093Z,76.58
2022-08-23T00:45:36.306Z,76.62
2022-08-23T00:48:05.295Z,76.30
2022-08-23T00:50:50.707Z,76.35
2022-08-23T00:53:42.158Z,76.48
2022-08-23T00:56:12.333Z,76.55
2022-08-23T00:58:39.541Z,76.35
2022-08-23T01:01:07.351Z,76.45
2022-08-23T01:03:38.998Z,76.36
2022-08-23T01:06:40.214Z,76.95
2022-08-23T01:09:12.466Z,76.95
2022-08-23T01:12:00.839Z,76.95
2022-08-23T01:14:35.880Z,77.00
2022-08-23T01:17:12.783Z,77.07
2022-08-23T01:19:46.677Z,76.84
2022-08-23T01:22:24.982Z,76.53
2022-08-23T01:25:08.191Z,76.33
2022-08-23T01:27:36.598Z,76.63
2022-08-23T01:30:06.645Z,76.58
2022-08-23T01:32:40.392Z,76.47
2022-08-23T01:35:07.431Z,76.80
2022-08-23T01:37:34.401Z,76.92
2022-08-23T01:40:00.918Z,76.83
2022-08-23T01:42:27.661Z,76.36
2022-08-23T01:44:54.308Z,76.89
2022-08-23T01:47:22.979Z,77.04
2022-08-23T01:49:49.459Z,77.15
2022-08-23T01:52:16.045Z,77.09
2022-08-23T01:54:43.394Z,77.24
2022-08-23T01:57:11.114Z,77.13
2022-08-23T01:59:38.568Z,76.76
2022-08-23T02:02:05.291Z,76.83
2022-08-23T02:04:31.944Z,76.73
2022-08-23T02:06:58.422Z,76.47
2022-08-23T02:09:25.548Z,76.66
2022-08-23T02:11:52.329Z,77.06
2022-08-23T02:14:20.834Z,77.49
2022-08-23T02:17:02.854Z,77.65
2022-08-23T02:19:31.833Z,77.18
2022-08-23T02:21:58.461Z,77.30
2022-08-23T02:24:26.198Z,77.72
2022-08-23T02:26:57.115Z,77.70
2022-08-23T02:29:25.194Z,77.90
2022-08-23T02:31:52.609Z,78.11
2022-08-23T02:34:20.137Z,78.65
2022-08-23T02:36:47.627Z,78.23
2022-08-23T02:39:15.661Z,78.56
2022-08-23T02:41:42.898Z,78.61
2022-08-23T02:44:11.184Z,78.66
2022-08-23T02:46:38.555Z,78.65
2022-08-23T02:49:05.716Z,79.05
2022-08-23T02:51:32.424Z,79.18
2022-08-23T02:53:59.062Z,79.29
2022-08-23T02:56:25.791Z,79.19
2022-08-23T02:58:54.680Z,79.40
2022-08-23T03:01:28.657Z,79.58
2022-08-23T03:03:56.592Z,79.46
2022-08-23T03:06:25.782Z,79.41
2022-08-23T03:08:54.355Z,79.32
2022-08-23T03:11:22.434Z,79.53
2022-08-23T03:13:49.682Z,79.05
2022-08-23T03:16:17.173Z,79.25
2022-08-23T03:18:43.990Z,79.15
2022-08-23T03:21:11.240Z,79.04
2022-08-23T03:23:39.392Z,79.18
2022-08-23T03:26:08.478Z,79.02
2022-08-23T03:28:37.320Z,79.31
2022-08-23T03:31:04.488Z,79.48
2022-08-23T03:33:31.018Z,79.69
2022-08-23T03:36:02.401Z,78.77
2022-08-23T03:38:29.033Z,78.51
2022-08-23T03:40:55.668Z,78.48
2022-08-23T03:43:22.557Z,78.07
2022-08-23T03:45:49.382Z,78.08
2022-08-23T03:48:16.662Z,78.12
2022-08-23T03:50:44.128Z,77.79
2022-08-23T03:53:12.255Z,77.76
2022-08-23T03:55:42.499Z,77.57
2022-08-23T03:58:09.799Z,77.25
2022-08-23T04:00:36.367Z,77.27
2022-08-23T04:03:03.345Z,77.36
2022-08-23T04:05:29.906Z,77.07
2022-08-23T04:07:56.430Z,77.38
2022-08-23T04:10:23.325Z,77.04
2022-08-23T04:12:50.015Z,77.20
2022-08-23T04:15:16.710Z,77.46
2022-08-23T04:17:43.359Z,77.48
2022-08-23T04:20:10.052Z,77.44
2022-08-23T04:22:36.669Z,77.34
2022-08-23T04:25:04.725Z,77.45
2022-08-23T04:27:42.820Z,76.95
2022-08-23T04:30:09.717Z,76.90
2022-08-23T04:32:41.003Z,76.89
2022-08-23T04:35:10.083Z,77.26
2022-08-23T04:37:36.740Z,77.76
2022-08-23T04:40:23.469Z,77.71
2022-08-23T04:42:49.999Z,77.78
2022-08-23T04:45:16.573Z,77.71
2022-08-23T04:47:44.840Z,77.62
2022-08-23T04:50:11.523Z,77.75
2022-08-23T04:52:38.077Z,78.41
2022-08-23T04:55:05.115Z,78.78
2022-08-23T04:57:31.829Z,78.83
2022-08-23T04:59:58.336Z,78.00
2022-08-23T05:02:24.842Z,77.95
2022-08-23T05:04:51.356Z,78.61
2022-08-23T05:07:17.827Z,78.60
2022-08-23T05:09:44.425Z,78.72
2022-08-23T05:12:11.359Z,78.63
2022-08-23T05:14:38.152Z,78.39
2022-08-23T05:17:24.300Z,78.39
2022-08-23T05:19:50.784Z,78.34
2022-08-23T05:22:17.457Z,78.55
2022-08-23T05:24:44.057Z,78.57
2022-08-23T05:27:13.681Z,79.06
2022-08-23T05:29:40.618Z,78.29
2022-08-23T05:32:07.226Z,78.41
2022-08-23T05:34:33.920Z,78.27
2022-08-23T05:37:00.672Z,78.66
2022-08-23T05:39:36.730Z,78.29
2022-08-23T05:42:05.843Z,77.74
2022-08-23T05:44:36.516Z,77.88
2022-08-23T05:47:10.677Z,77.82
2022-08-23T05:49:38.967Z,77.97
2022-08-23T05:52:07.847Z,77.92
2022-08-23T05:54:35.632Z,77.47
2022-08-23T05:57:05.587Z,77.24
2022-08-23T05:59:32.079Z,77.00
2022-08-23T06:01:58.857Z,76.90
2022-08-23T06:04:25.464Z,76.13
2022-08-23T06:06:52.206Z,76.01
2022-08-23T06:09:19.501Z,75.20
2022-08-23T06:11:48.023Z,74.95
2022-08-23T06:14:15.436Z,74.37
2022-08-23T06:16:46.616Z,73.84
2022-08-23T06:19:14.592Z,73.49
2022-08-23T06:21:42.537Z,73.66
2022-08-23T06:24:09.979Z,73.58
2022-08-23T06:26:45.400Z,73.43
2022-08-23T06:29:17.459Z,73.42
2022-08-23T06:31:49.027Z,72.77
2022-08-23T06:34:18.477Z,72.68
2022-08-23T06:37:32.987Z,72.55
2022-08-23T06:40:02.380Z,72.42
2022-08-23T06:43:14.103Z,72.24
2022-08-23T06:46:00.989Z,72.23
2022-08-23T06:49:15.402Z,71.94
2022-08-23T06:52:05.378Z,71.95
2022-08-23T06:57:23.447Z,71.77
2022-08-23T06:59:50.184Z,71.70
2022-08-23T07:02:17.228Z,71.94
2022-08-23T07:04:43.979Z,71.67
2022-08-23T07:07:12.135Z,72.06
2022-08-23T07:09:40.158Z,72.43
2022-08-23T07:12:06.984Z,72.26
2022-08-23T07:14:33.980Z,72.31
2022-08-23T07:17:03.449Z,72.16
2022-08-23T07:19:33.056Z,71.93
2022-08-23T07:22:00.659Z,72.16
2022-08-23T07:24:32.316Z,71.86
2022-08-23T07:27:01.397Z,71.55
2022-08-23T07:29:28.618Z,70.88
2022-08-23T07:31:56.209Z,71.07
2022-08-23T07:34:23.488Z,71.45
2022-08-23T07:36:51.380Z,70.90
2022-08-23T07:39:19.001Z,69.82
2022-08-23T07:41:45.610Z,68.85
2022-08-23T07:44:15.087Z,68.21
2022-08-23T07:46:47.343Z,68.34
2022-08-23T07:49:15.234Z,67.31
2022-08-23T07:51:46.395Z,66.09
2022-08-23T07:54:12.933Z,65.47
2022-08-23T07:56:40.653Z,65.48
2022-08-23T08:10:13.907Z,62.99
2022-08-23T08:19:29.740Z,61.40
2022-08-23T08:22:13.355Z,61.08
2022-08-23T08:32:30.917Z,60.71
2022-08-23T08:34:57.355Z,59.81
2022-08-23T08:37:24.482Z,58.52
2022-08-23T08:39:52.046Z,57.47
2022-08-23T08:42:39.132Z,56.76
2022-08-23T08:45:10.695Z,56.71
2022-08-23T08:47:49.651Z,57.46
2022-08-23T08:50:26.478Z,57.73
2022-08-23T08:53:00.857Z,57.33
2022-08-23T08:55:36.673Z,57.04
2022-08-23T09:10:10.659Z,56.34
2022-08-23T09:22:43.130Z,53.66
2022-08-23T09:25:11.362Z,54.36
2022-08-23T09:27:40.057Z,53.30
2022-08-23T09:30:07.648Z,51.81
2022-08-23T09:32:39.546Z,52.39
2022-08-23T09:35:25.874Z,52.39
2022-08-23T09:38:03.684Z,52.03
2022-08-23T09:40:38.807Z,51.47
2022-08-23T09:43:26.275Z,52.01
2022-08-23T09:46:00.042Z,51.48
2022-08-23T09:48:32.885Z,50.36
2022-08-23T09:51:16.752Z,50.43
2022-08-23T09:53:50.036Z,50.27
2022-08-23T09:56:45.314Z,49.17
2022-08-23T09:59:45.953Z,48.88
2022-08-23T10:02:21.986Z,48.83
2022-08-23T10:05:29.241Z,47.65
2022-08-23T10:08:03.615Z,47.50
2022-08-23T10:10:51.068Z,47.08
2022-08-23T10:13:28.122Z,46.63
2022-08-23T10:16:34.252Z,46.95
2022-08-23T10:19:18.725Z,46.37
2022-08-23T10:22:13.013Z,45.94
2022-08-23T10:25:04.192Z,45.70
2022-08-23T10:28:24.630Z,45.56
2022-08-23T10:30:56.307Z,44.16
2022-08-23T10:33:48.289Z,44.88
2022-08-23T10:36:46.219Z,44.02
2022-08-23T10:39:47.083Z,43.84
2022-08-23T10:42:41.304Z,42.75
2022-08-23T10:45:25.428Z,42.70
2022-08-23T10:48:09.818Z,41.25
2022-08-23T10:50:55.690Z,41.22
2022-08-23T10:53:34.632Z,40.37
2022-08-23T10:56:41.514Z,40.85
2022-08-23T10:59:21.074Z,38.90
2022-08-23T11:01:58.447Z,39.73
2022-08-23T11:04:36.101Z,39.01
2022-08-23T11:07:29.615Z,40.44
2022-08-23T11:10:30.598Z,39.58
2022-08-23T11:13:07.055Z,38.34
2022-08-23T11:16:12.151Z,38.53
2022-08-23T11:18:47.350Z,37.88
2022-08-23T11:21:33.740Z,37.89
2022-08-23T11:24:04.972Z,37.60
2022-08-23T11:26:40.642Z,36.76
2022-08-23T11:29:10.208Z,37.24
2022-08-23T11:31:42.011Z,36.64
2022-08-23T11:34:29.745Z,37.35
2022-08-23T11:37:23.460Z,37.23
2022-08-23T11:40:00.218Z,36.85
2022-08-23T11:42:50.223Z,37.05
2022-08-23T11:45:30.179Z,36.14
2022-08-23T11:48:35.699Z,36.43
2022-08-23T11:51:14.941Z,35.26
2022-08-23T11:53:49.459Z,35.70
2022-08-23T11:56:46.423Z,36.65
2022-08-23T11:59:41.829Z,37.04
2022-08-23T12:02:48.187Z,36.72
2022-08-23T12:05:44.510Z,36.48
2022-08-23T12:08:18.064Z,35.20
2022-08-23T12:10:45.739Z,35.25
2022-08-23T12:13:23.268Z,35.88
2022-08-23T12:16:17.775Z,36.32
2022-08-23T12:18:48.388Z,37.45
2022-08-23T12:21:21.942Z,37.58
2022-08-23T12:23:53.342Z,35.68
2022-08-23T12:26:28.830Z,35.88
2022-08-23T12:29:41.315Z,36.25
2022-08-23T12:32:48.048Z,36.15
2022-08-23T12:35:40.920Z,35.17
2022-08-23T12:38:34.436Z,35.81
2022-08-23T12:41:34.704Z,36.74
2022-08-23T12:44:10.311Z,35.66
2022-08-23T12:46:51.914Z,36.07
2022-08-23T12:49:36.980Z,35.43
2022-08-23T12:52:11.033Z,35.87
2022-08-23T12:54:55.327Z,34.90
2022-08-23T12:57:36.731Z,33.78
2022-08-23T13:00:17.107Z,34.03
2022-08-23T13:03:13.405Z,35.14
2022-08-23T13:05:48.431Z,35.75
2022-08-23T13:08:34.131Z,35.57
2022-08-23T13:11:07.786Z,35.15
2022-08-23T13:13:42.807Z,34.79
2022-08-23T13:16:32.340Z,34.63
2022-08-23T13:19:22.704Z,33.41
2022-08-23T13:22:22.544Z,33.15
2022-08-23T13:27:58.220Z,33.40
2022-08-23T13:30:30.144Z,32.90
2022-08-23T13:33:09.543Z,33.47
2022-08-23T13:35:58.643Z,33.70
2022-08-23T13:38:31.750Z,34.63
2022-08-23T13:41:12.151Z,34.15
2022-08-23T13:43:47.360Z,34.94
2022-08-23T13:46:31.565Z,35.40
2022-08-23T13:49:07.194Z,35.03
2022-08-23T13:51:38.828Z,33.95
2022-08-23T13:54:13.594Z,33.76
2022-08-23T13:56:53.401Z,33.90
2022-08-23T13:59:31.573Z,33.86
2022-08-23T14:02:07.527Z,34.07
2022-08-23T14:04:35.930Z,32.15
2022-08-23T14:07:04.342Z,32.58
2022-08-23T14:09:35.800Z,33.51
2022-08-23T14:12:18.030Z,33.04
2022-08-23T14:14:57.965Z,32.72
2022-08-23T14:17:27.861Z,32.38
2022-08-23T14:23:11.511Z,30.76
2022-08-23T14:25:49.784Z,29.77
2022-08-23T14:28:27.327Z,30.08
2022-08-23T14:30:58.580Z,30.11
2022-08-23T14:33:39.066Z,30.59
2022-08-23T14:36:15.071Z,30.29
2022-08-23T14:38:58.648Z,29.81
2022-08-23T14:41:31.255Z,29.66
2022-08-23T14:43:58.845Z,28.92
2022-08-23T14:46:36.207Z,29.33
2022-08-23T14:49:06.593Z,29.69
2022-08-23T14:51:43.180Z,29.73
2022-08-23T14:54:28.382Z,30.49
2022-08-23T14:56:55.589Z,29.86
2022-08-23T14:59:29.265Z,30.08
2022-08-23T15:02:01.421Z,29.45
2022-08-23T15:04:35.147Z,29.52
2022-08-23T15:07:18.047Z,29.66
2022-08-23T15:09:59.418Z,29.20
2022-08-23T15:15:25.712Z,28.43
2022-08-23T15:18:12.317Z,28.18
2022-08-23T15:20:47.440Z,28.99
2022-08-23T15:23:16.204Z,29.58
2022-08-23T15:25:44.601Z,30.21
2022-08-23T15:28:15.945Z,31.24
2022-08-23T15:30:45.306Z,31.91
2022-08-23T15:33:27.131Z,32.95
2022-08-23T15:35:59.623Z,31.87
2022-08-23T15:38:28.490Z,31.67
2022-08-23T15:41:01.895Z,29.91
2022-08-23T15:43:35.001Z,30.22
2022-08-23T15:46:16.379Z,30.40
2022-08-23T15:48:58.672Z,31.48
2022-08-23T15:51:27.233Z,31.55
2022-08-23T15:54:01.455Z,31.81
2022-08-23T15:56:56.792Z,31.95
2022-08-23T15:59:24.609Z,31.04
2022-08-23T16:02:00.798Z,31.12
2022-08-23T16:04:32.578Z,30.84
2022-08-23T16:07:10.241Z,31.30
2022-08-23T16:09:41.490Z,31.27
2022-08-23T16:12:10.212Z,30.39
2022-08-23T16:14:44.978Z,31.58
2022-08-23T16:17:22.182Z,32.47
2022-08-23T16:19:54.776Z,34.14
2022-08-23T16:22:24.696Z,35.39
2022-08-23T16:24:55.654Z,34.89
2022-08-23T16:27:32.691Z,33.99
2022-08-23T16:30:00.292Z,32.46
2022-08-23T16:32:31.656Z,33.46
2022-08-23T16:35:07.140Z,35.23
2022-08-23T16:37:36.805Z,36.33
2022-08-23T16:40:09.554Z,38.01
2022-08-23T16:42:49.991Z,37.96
2022-08-23T16:45:25.877Z,37.71
2022-08-23T16:48:00.217Z,36.86
2022-08-23T16:50:37.901Z,35.86
2022-08-23T16:53:12.256Z,34.71
2022-08-23T16:55:44.002Z,35.19
2022-08-23T16:58:11.905Z,33.95
2022-08-23T17:00:39.772Z,34.11
2022-08-23T17:03:15.491Z,33.91
2022-08-23T17:05:55.360Z,33.47
2022-08-23T17:08:23.470Z,34.64
2022-08-23T17:11:01.135Z,34.95
2022-08-23T17:13:30.882Z,36.44
2022-08-23T17:16:05.127Z,37.18
2022-08-23T17:18:39.232Z,38.20
2022-08-23T17:21:08.162Z,39.21
2022-08-23T17:23:41.069Z,39.88
2022-08-23T17:26:11.665Z,40.71
2022-08-23T17:28:46.271Z,41.47
2022-08-23T17:31:15.018Z,41.21
2022-08-23T17:33:43.124Z,41.84
2022-08-23T17:36:42.587Z,42.50
2022-08-23T17:39:19.448Z,42.40
2022-08-23T17:41:47.351Z,43.27
2022-08-23T17:44:17.942Z,43.38
2022-08-23T17:46:47.946Z,43.45
2022-08-23T17:49:16.111Z,42.95
2022-08-23T17:51:43.869Z,44.10
2022-08-23T17:54:16.105Z,44.95
2022-08-23T17:56:50.241Z,44.77
2022-08-23T17:59:22.251Z,44.77
2022-08-23T18:01:50.230Z,45.14
2022-08-23T18:04:20.924Z,46.27
2022-08-23T18:06:49.620Z,46.76
2022-08-23T18:09:21.992Z,46.67
2022-08-23T18:11:49.243Z,46.75
2022-08-23T18:14:18.762Z,48.44
2022-08-23T18:16:47.262Z,49.70
2022-08-23T18:19:15.833Z,50.69
2022-08-23T18:21:44.233Z,51.13
2022-08-23T18:24:11.410Z,51.69
2022-08-23T18:26:59.764Z,52.88
2022-08-23T18:29:26.305Z,53.88
2022-08-23T18:31:53.563Z,54.74
2022-08-23T18:34:21.711Z,55.28
2022-08-23T18:37:01.814Z,55.32
2022-08-23T18:39:32.475Z,55.94
2022-08-23T18:42:06.736Z,55.80
2022-08-23T18:44:33.315Z,56.94
2022-08-23T18:47:03.773Z,57.88
2022-08-23T18:49:31.565Z,57.61
2022-08-23T18:51:57.982Z,57.93
2022-08-23T18:54:24.957Z,57.80
2022-08-23T18:57:03.547Z,57.86
2022-08-23T18:59:30.497Z,58.88
2022-08-23T19:01:57.142Z,59.36
2022-08-23T19:04:23.983Z,59.29
2022-08-23T19:06:53.472Z,59.14
2022-08-23T19:09:21.081Z,60.22
2022-08-23T19:11:47.646Z,60.94
2022-08-23T19:14:14.281Z,60.54
2022-08-23T19:16:48.366Z,60.91
2022-08-23T19:19:16.124Z,61.40
2022-08-23T19:21:42.756Z,61.74
2022-08-23T19:24:09.356Z,61.80
2022-08-23T19:26:37.573Z,62.37
2022-08-23T19:29:08.550Z,62.53
2022-08-23T19:31:41.754Z,61.42
2022-08-23T19:34:09.555Z,62.13
2022-08-23T19:37:00.691Z,62.60
2022-08-23T19:39:29.023Z,62.60
2022-08-23T19:41:55.615Z,62.73
2022-08-23T19:44:22.727Z,62.87
2022-08-23T19:46:57.407Z,63.27
2022-08-23T19:49:24.138Z,63.42
2022-08-23T19:51:50.670Z,63.63
2022-08-23T19:54:17.302Z,63.61
2022-08-23T19:57:45.460Z,63.32
2022-08-23T20:00:19.317Z,64.32
2022-08-23T20:02:47.143Z,64.08
2022-08-23T20:05:13.634Z,64.03
2022-08-23T20:07:40.531Z,64.22
2022-08-23T20:10:08.685Z,64.67
2022-08-23T20:12:35.442Z,64.81
2022-08-23T20:15:02.541Z,65.27
2022-08-23T20:18:08.857Z,65.08
2022-08-23T20:20:35.397Z,65.24
2022-08-23T20:23:20.392Z,65.00
2022-08-23T20:25:46.934Z,65.56
2022-08-23T20:28:13.366Z,66.08
2022-08-23T20:30:40.269Z,66.58
2022-08-23T20:33:06.810Z,66.17
2022-08-23T20:35:33.383Z,67.35
2022-08-23T20:38:03.152Z,67.98
2022-08-23T20:40:30.016Z,67.93
2022-08-23T20:42:56.681Z,68.67
2022-08-23T20:45:23.471Z,69.16
2022-08-23T20:47:50.118Z,69.17
2022-08-23T20:50:17.202Z,69.61
2022-08-23T20:52:44.239Z,69.85
2022-08-23T20:55:13.758Z,69.47
2022-08-23T20:58:07.685Z,69.28
2022-08-23T21:00:34.234Z,70.56
2022-08-23T21:03:00.946Z,70.83
2022-08-23T21:05:27.519Z,71.00
2022-08-23T21:07:55.742Z,70.65
2022-08-23T21:10:22.628Z,71.05
2022-08-23T21:12:49.128Z,71.62
2022-08-23T21:15:15.610Z,71.84
2022-08-23T21:17:46.746Z,72.11
2022-08-23T21:20:14.329Z,72.06
2022-08-23T21:22:41.299Z,71.94
2022-08-23T21:25:08.319Z,72.77
2022-08-23T21:27:49.437Z,73.21
2022-08-23T21:30:16.317Z,73.51
2022-08-23T21:32:42.765Z,73.67
2022-08-23T21:35:09.916Z,73.29
2022-08-23T21:38:09.459Z,73.78
2022-08-23T21:40:36.129Z,73.86
2022-08-23T21:43:02.968Z,73.44
2022-08-23T21:45:29.717Z,74.33
2022-08-23T21:48:01.381Z,73.80
2022-08-23T21:50:28.713Z,74.26
2022-08-23T21:52:56.761Z,74.54
2022-08-23T21:55:34.437Z,74.63
2022-08-23T21:58:03.802Z,74.42
2022-08-23T22:00:30.659Z,74.93
2022-08-23T22:02:57.623Z,74.99
2022-08-23T22:05:26.497Z,75.06
2022-08-23T22:07:53.756Z,74.37
2022-08-23T22:10:21.818Z,74.85
2022-08-23T22:12:48.624Z,75.55
2022-08-23T22:15:16.297Z,75.20
2022-08-23T22:17:55.548Z,74.98
2022-08-23T22:20:22.023Z,75.64
2022-08-23T22:22:50.382Z,75.91
2022-08-23T22:25:17.439Z,76.12
2022-08-23T22:27:57.596Z,76.15
2022-08-23T22:30:24.919Z,76.81
2022-08-23T22:32:51.465Z,76.71
2022-08-23T22:35:18.503Z,77.33
2022-08-23T22:38:10.201Z,77.45
2022-08-23T22:40:33.987Z,77.58
2022-08-23T22:43:00.541Z,77.26
2022-08-23T22:45:30.029Z,77.44
2022-08-23T22:48:40.340Z,77.03
2022-08-23T22:51:19.424Z,76.96
2022-08-23T22:53:50.015Z,77.01
2022-08-23T23:00:42.270Z,77.44
2022-08-23T23:03:09.216Z,77.83
2022-08-23T23:05:37.690Z,78.00
2022-08-23T23:08:23.250Z,78.26
2022-08-23T23:10:49.806Z,78.81
2022-08-23T23:13:16.591Z,79.04
2022-08-23T23:15:54.726Z,78.67
2022-08-23T23:18:23.655Z,78.13
2022-08-23T23:20:50.445Z,78.05
2022-08-23T23:23:20.682Z,78.48
2022-08-23T23:25:59.834Z,78.80
2022-08-23T23:28:27.268Z,78.49
2022-08-23T23:30:55.635Z,78.77
2022-08-23T23:33:23.512Z,78.61
2022-08-23T23:35:59.671Z,78.81
2022-08-23T23:38:26.185Z,79.06
2022-08-23T23:40:52.740Z,78.96
2022-08-23T23:43:19.299Z,78.67
2022-08-23T23:46:12.046Z,79.25
2022-08-23T23:48:39.672Z,79.43
2022-08-23T23:51:08.454Z,79.78
2022-08-23T23:53:36.691Z,79.89
2022-08-23T23:56:21.862Z,80.00
2022-08-23T23:58:50.963Z,79.97
